Time,TemperatureF,DewpointF,PressureIn,WindDirection,WindDirectionDegrees,WindSpeedMPH,WindSpeedGustMPH,Humidity,HourlyPrecipIn,Conditions,Clouds,dailyrainin,SoftwareType,DateUTC
2013-06-30 00:12:00,66.0,-99.9,-100.00,North,356,8.0,12.0,-999,0.00,,,0.04,,2013-06-30 05:12:00,
2013-06-30 00:22:00,66.0,-99.9,-100.00,North,356,8.0,12.0,-999,0.00,,,0.04,,2013-06-30 05:22:00,
2013-06-30 00:34:00,66.0,-99.9,-100.00,North,354,9.0,12.0,-999,0.00,,,0.04,,2013-06-30 05:34:00,
2013-06-30 00:43:00,66.0,-99.9,-100.00,North,354,9.0,12.0,-999,0.00,,,0.04,,2013-06-30 05:43:00,
2013-06-30 00:53:00,66.0,-99.9,-100.00,North,354,9.0,12.0,-999,0.00,,,0.04,,2013-06-30 05:53:00,
2013-06-30 01:12:00,66.0,-99.9,-100.00,NNW,347,8.0,11.0,-999,0.00,,,0.04,,2013-06-30 06:12:00,
2013-06-30 01:23:00,66.0,-99.9,-100.00,NNW,347,8.0,11.0,-999,0.00,,,0.04,,2013-06-30 06:23:00,
2013-06-30 01:43:00,66.0,-99.9,-100.00,NNW,347,8.0,10.0,-999,0.00,,,0.04,,2013-06-30 06:43:00,
2013-06-30 01:53:00,66.0,-99.9,-100.00,NNW,347,8.0,10.0,-999,0.00,,,0.04,,2013-06-30 06:53:00,
2013-06-30 02:12:00,66.0,-99.9,-100.00,North,2,10.0,13.0,-999,0.00,,,0.04,,2013-06-30 07:12:00,
2013-06-30 02:22:00,66.0,-99.9,-100.00,North,2,10.0,13.0,-999,0.00,,,0.04,,2013-06-30 07:22:00,
2013-06-30 02:44:00,66.0,-99.9,-100.00,North,353,11.0,13.0,-999,0.00,,,0.04,,2013-06-30 07:44:00,
2013-06-30 02:53:00,66.0,-99.9,-100.00,North,353,11.0,13.0,-999,0.00,,,0.04,,2013-06-30 07:53:00,
2013-06-30 03:12:00,66.0,-99.9,-100.00,North,359,9.0,12.0,-999,0.00,,,0.04,,2013-06-30 08:12:00,
2013-06-30 03:22:00,66.0,-99.9,-100.00,North,359,9.0,12.0,-999,0.00,,,0.04,,2013-06-30 08:22:00,
2013-06-30 03:42:00,66.0,-99.9,-100.00,North,353,10.0,15.0,-999,0.00,,,0.04,,2013-06-30 08:42:00,
2013-06-30 03:53:00,66.0,-99.9,-100.00,North,353,10.0,15.0,-999,0.00,,,0.04,,2013-06-30 08:53:00,
2013-06-30 04:12:00,66.0,-99.9,-100.00,North,356,10.0,13.0,-999,0.00,,,0.04,,2013-06-30 09:12:00,
2013-06-30 04:23:00,66.0,-99.9,-100.00,North,356,10.0,13.0,-999,0.00,,,0.04,,2013-06-30 09:23:00,
2013-06-30 04:30:00,66.0,-99.9,-100.00,North,355,9.0,11.0,-999,0.00,,,0.04,,2013-06-30 09:30:00,
2013-06-30 04:43:00,66.0,-99.9,-100.00,North,356,10.0,12.0,-999,0.00,,,0.04,,2013-06-30 09:43:00,
2013-06-30 04:53:00,66.0,-99.9,-100.00,North,356,10.0,12.0,-999,0.00,,,0.04,,2013-06-30 09:53:00,
2013-06-30 05:11:00,66.0,-99.9,-100.00,North,355,9.0,11.0,-999,0.00,,,0.04,,2013-06-30 10:11:00,
2013-06-30 05:22:00,66.0,-99.9,-100.00,North,355,9.0,11.0,-999,0.00,,,0.04,,2013-06-30 10:22:00,
2013-06-30 06:11:00,66.0,-99.9,-100.00,North,351,10.0,14.0,-999,0.00,,,0.04,,2013-06-30 11:11:00,
2013-06-30 06:22:00,66.0,-99.9,-100.00,North,351,10.0,14.0,-999,0.00,,,0.04,,2013-06-30 11:22:00,
2013-06-30 06:43:00,66.0,-99.9,-100.00,North,352,8.0,14.0,-999,0.00,,,0.04,,2013-06-30 11:43:00,
2013-06-30 06:53:00,66.0,-99.9,-100.00,North,352,8.0,14.0,-999,0.00,,,0.04,,2013-06-30 11:53:00,
2013-06-30 07:12:00,66.0,-99.9,-100.00,North,356,8.0,10.0,-999,0.00,,,-99.99,,2013-06-30 12:12:00,
2013-06-30 07:24:00,66.0,-99.9,-100.00,North,356,8.0,10.0,-999,0.00,,,-99.99,,2013-06-30 12:24:00,
2013-06-30 07:43:00,66.0,-99.9,-100.00,North,4,10.0,14.0,-999,0.00,,,0.04,,2013-06-30 12:43:00,
2013-06-30 07:52:00,66.0,-99.9,-100.00,North,4,10.0,14.0,-999,0.00,,,0.04,,2013-06-30 12:52:00,
2013-06-30 08:12:00,66.0,-99.9,-100.00,NNE,14,11.0,14.0,-999,0.00,,,0.04,,2013-06-30 13:12:00,
2013-06-30 08:22:00,66.0,-99.9,-100.00,NNE,14,11.0,14.0,-999,0.00,,,0.04,,2013-06-30 13:22:00,
2013-06-30 08:44:00,66.0,-99.9,-100.00,NNE,15,11.0,14.0,-999,0.00,,,0.04,,2013-06-30 13:44:00,
2013-06-30 08:53:00,66.0,-99.9,-100.00,NNE,15,11.0,14.0,-999,0.00,,,0.04,,2013-06-30 13:53:00,
2013-06-30 09:11:00,67.0,-99.9,-100.00,North,1,9.0,12.0,-999,0.00,,,0.04,,2013-06-30 14:11:00,
2013-06-30 09:22:00,67.0,-99.9,-100.00,North,1,9.0,12.0,-999,0.00,,,0.04,,2013-06-30 14:22:00,
2013-06-30 09:44:00,68.0,-99.9,-100.00,North,9,11.0,14.0,-999,0.00,,,0.04,,2013-06-30 14:44:00,
2013-06-30 09:52:00,68.0,-99.9,-100.00,North,9,11.0,14.0,-999,0.00,,,0.04,,2013-06-30 14:52:00,
2013-06-30 10:00:00,69.0,-99.9,-100.00,North,11,12.0,16.0,-999,0.00,,,-99.99,,2013-06-30 15:00:00,
2013-06-30 10:12:00,68.0,-99.9,-100.00,NNE,18,16.0,21.0,-999,0.00,,,0.04,,2013-06-30 15:12:00,
2013-06-30 10:23:00,68.0,-99.9,-100.00,NNE,18,16.0,21.0,-999,0.00,,,0.04,,2013-06-30 15:23:00,
2013-06-30 10:30:00,69.0,-99.9,-100.00,NNE,14,14.0,18.0,-999,0.00,,,-99.99,,2013-06-30 15:30:00,
2013-06-30 10:44:00,69.0,-99.9,-100.00,North,11,12.0,16.0,-999,0.00,,,-99.99,,2013-06-30 15:44:00,
2013-06-30 10:53:00,69.0,-99.9,-100.00,North,11,12.0,16.0,-999,0.00,,,-99.99,,2013-06-30 15:53:00,
2013-06-30 11:30:00,69.0,-99.9,-100.00,North,1,12.0,17.0,-999,0.00,,,0.04,,2013-06-30 16:30:00,
2013-06-30 12:12:00,69.0,-99.9,-100.00,North,1,12.0,17.0,-999,0.00,,,0.04,,2013-06-30 17:12:00,
2013-06-30 12:24:00,69.0,-99.9,-100.00,North,1,12.0,17.0,-999,0.00,,,0.04,,2013-06-30 17:24:00,
2013-06-30 12:30:00,71.0,-99.9,-100.00,North,6,11.0,15.0,-999,0.00,,,0.04,,2013-06-30 17:30:00,
2013-06-30 13:12:00,71.0,-99.9,-100.00,North,6,11.0,15.0,-999,0.00,,,0.04,,2013-06-30 18:12:00,
2013-06-30 13:22:00,71.0,-99.9,-100.00,North,6,11.0,15.0,-999,0.00,,,0.04,,2013-06-30 18:22:00,
2013-06-30 14:12:00,72.0,-99.9,-100.00,North,7,10.0,13.0,-999,0.00,,,0.04,,2013-06-30 19:12:00,
2013-06-30 14:22:00,72.0,-99.9,-100.00,North,7,10.0,13.0,-999,0.00,,,0.04,,2013-06-30 19:22:00,
2013-06-30 14:43:00,72.0,-99.9,-100.00,NNE,15,15.0,17.0,-999,0.00,,,0.04,,2013-06-30 19:43:00,
2013-06-30 14:53:00,72.0,-99.9,-100.00,NNE,15,15.0,17.0,-999,0.00,,,0.04,,2013-06-30 19:53:00,
2013-06-30 15:12:00,73.0,-99.9,-100.00,North,4,9.0,12.0,-999,0.00,,,0.04,,2013-06-30 20:12:00,
2013-06-30 15:22:00,73.0,-99.9,-100.00,North,4,9.0,12.0,-999,0.00,,,0.04,,2013-06-30 20:22:00,
2013-06-30 15:30:00,74.0,-99.9,-100.00,North,358,9.0,13.0,-999,0.00,,,0.02,,2013-06-30 20:30:00,
2013-06-30 15:43:00,73.0,-99.9,-100.00,North,4,13.0,17.0,-999,0.00,,,0.02,,2013-06-30 20:43:00,
2013-06-30 15:52:00,73.0,-99.9,-100.00,North,4,13.0,17.0,-999,0.00,,,0.02,,2013-06-30 20:52:00,
2013-06-30 16:11:00,74.0,-99.9,-100.00,North,358,9.0,13.0,-999,0.00,,,0.02,,2013-06-30 21:11:00,
2013-06-30 16:22:00,74.0,-99.9,-100.00,North,358,9.0,13.0,-999,0.00,,,0.02,,2013-06-30 21:22:00,
2013-06-30 17:11:00,75.0,-99.9,-100.00,North,5,11.0,15.0,-999,0.00,,,0.02,,2013-06-30 22:11:00,
2013-06-30 17:22:00,75.0,-99.9,-100.00,North,5,11.0,15.0,-999,0.00,,,0.02,,2013-06-30 22:22:00,
2013-06-30 17:43:00,75.0,-99.9,-100.00,North,7,12.0,13.0,-999,0.00,,,0.02,,2013-06-30 22:43:00,
2013-06-30 17:53:00,75.0,-99.9,-100.00,North,7,12.0,13.0,-999,0.00,,,0.02,,2013-06-30 22:53:00,
2013-06-30 18:11:00,76.0,-99.9,-100.00,NNE,13,13.0,16.0,-999,0.00,,,0.02,,2013-06-30 23:11:00,
2013-06-30 18:22:00,76.0,-99.9,-100.00,NNE,13,13.0,16.0,-999,0.00,,,0.02,,2013-06-30 23:22:00,
2013-06-30 18:44:00,76.0,-99.9,-100.00,NNE,13,11.0,15.0,-999,0.00,,,0.02,,2013-06-30 23:44:00,
2013-06-30 18:53:00,76.0,-99.9,-100.00,NNE,13,11.0,15.0,-999,0.00,,,0.02,,2013-06-30 23:53:00,
2013-06-30 19:11:00,75.0,-99.9,-100.00,North,358,7.0,9.0,-999,0.00,,,0.02,,2013-07-01 00:11:00,
2013-06-30 19:22:00,75.0,-99.9,-100.00,North,358,7.0,9.0,-999,0.00,,,0.02,,2013-07-01 00:22:00,
2013-06-30 19:33:00,75.0,-99.9,-100.00,North,352,7.0,10.0,-999,0.00,,,0.02,,2013-07-01 00:33:00,
2013-06-30 19:43:00,75.0,-99.9,-100.00,North,352,7.0,10.0,-999,0.00,,,0.02,,2013-07-01 00:43:00,
2013-06-30 19:52:00,75.0,-99.9,-100.00,North,352,7.0,10.0,-999,0.00,,,0.02,,2013-07-01 00:52:00,
2013-06-30 20:12:00,74.0,-99.9,-100.00,North,4,13.0,19.0,-999,0.00,,,0.02,,2013-07-01 01:12:00,
2013-06-30 20:22:00,74.0,-99.9,-100.00,North,4,13.0,19.0,-999,0.00,,,0.02,,2013-07-01 01:22:00,
2013-06-30 20:43:00,71.0,-99.9,-100.00,North,8,12.0,18.0,-999,0.00,,,0.01,,2013-07-01 01:43:00,
2013-06-30 20:52:00,71.0,-99.9,-100.00,North,8,12.0,18.0,-999,0.00,,,0.01,,2013-07-01 01:52:00,
2013-06-30 21:12:00,70.0,-99.9,-100.00,North,9,7.0,9.0,-999,0.00,,,0.00,,2013-07-01 02:12:00,
2013-06-30 21:22:00,70.0,-99.9,-100.00,North,9,7.0,9.0,-999,0.00,,,0.00,,2013-07-01 02:22:00,
2013-06-30 21:44:00,69.0,-99.9,-100.00,NNE,21,7.0,8.0,-999,0.00,,,0.00,,2013-07-01 02:44:00,
2013-06-30 21:54:00,69.0,-99.9,-100.00,NNE,21,7.0,8.0,-999,0.00,,,0.00,,2013-07-01 02:54:00,
2013-06-30 22:12:00,69.0,-99.9,-100.00,NNW,337,5.0,6.0,-999,0.00,,,0.00,,2013-07-01 03:12:00,
2013-06-30 22:23:00,69.0,-99.9,-100.00,NNW,337,5.0,6.0,-999,0.00,,,0.00,,2013-07-01 03:23:00,
2013-06-30 22:43:00,69.0,-99.9,-100.00,North,355,5.0,6.0,-999,0.00,,,0.00,,2013-07-01 03:43:00,
2013-06-30 22:53:00,69.0,-99.9,-100.00,North,355,5.0,6.0,-999,0.00,,,0.00,,2013-07-01 03:53:00,
2013-06-30 23:11:00,69.0,-99.9,-100.00,North,2,5.0,7.0,-999,0.00,,,0.00,,2013-07-01 04:11:00,
2013-06-30 23:22:00,69.0,-99.9,-100.00,North,2,5.0,7.0,-999,0.00,,,0.00,,2013-07-01 04:22:00,
2013-06-30 23:32:00,69.0,-99.9,-100.00,NNE,18,8.0,10.0,-999,0.00,,,0.00,,2013-07-01 04:32:00,
2013-06-30 23:43:00,69.0,-99.9,-100.00,NNE,18,8.0,10.0,-999,0.00,,,0.00,,2013-07-01 04:43:00,
2013-06-30 23:53:00,69.0,-99.9,-100.00,NNE,18,8.0,10.0,-999,0.00,,,0.00,,2013-07-01 04:53:00,